| time (UTC) | temp C | wind direction | speed KPH | gust KPH | rain 1hr cm | rain 24hr cm | rain mn cm | humidity % | barometer mb |
| 20260510123257 | 11 | 244 | 4.8 | 4.8 | 0.00 | 0.03 | 0.03 | 99 | 1012.7 |
| 20260510122753 | 11 | 194 | 4.8 | 4.8 | 0.00 | 0.03 | 0.03 | 99 | 1012.7 |
| 20260510122250 | 11 | 316 | 1.6 | 1.6 | 0.00 | 0.03 | 0.03 | 99 | 1012.8 |
| 20260510121746 | 11 | 192 | 3.2 | 4.8 | 0.00 | 0.03 | 0.03 | 99 | 1012.6 |
| 20260510121244 | 11 | 209 | 6.4 | 11.3 | 0.00 | 0.03 | 0.03 | 99 | 1012.3 |
| 20260510120741 | 11 | 174 | 6.4 | 8.0 | 0.00 | 0.03 | 0.03 | 99 | 1012.2 |
| 20260510120237 | 11 | 186 | 3.2 | 4.8 | 0.00 | 0.03 | 0.03 | 99 | 1012.2 |
| 20260510115733 | 11 | 178 | 6.4 | 8.0 | 0.00 | 0.03 | 0.03 | 99 | 1012.1 |
| 20260510115232 | 11 | 228 | 3.2 | 4.8 | 0.00 | 0.03 | 0.03 | 99 | 1012.3 |
| 20260510114726 | 11 | 228 | 4.8 | 4.8 | 0.00 | 0.03 | 0.03 | 99 | 1012.2 |
| 20260510114224 | 11 | 243 | 6.4 | 8.0 | 0.00 | 0.03 | 0.03 | 99 | 1012.2 |
| 20260510113719 | 11 | 202 | 4.8 | 4.8 | 0.00 | 0.03 | 0.03 | 99 | 1012.3 |
| 20260510113216 | 11 | 198 | 4.8 | 8.0 | 0.00 | 0.03 | 0.03 | 99 | 1012.4 |
| 20260510112712 | 11 | 174 | 6.4 | 9.7 | 0.00 | 0.03 | 0.03 | 99 | 1012.5 |
| 20260510112209 | 11 | 108 | 4.8 | 8.0 | 0.00 | 0.03 | 0.03 | 99 | 1012.1 |
| 20260510111705 | 11 | 248 | 3.2 | 3.2 | 0.00 | 0.03 | 0.03 | 99 | 1012.2 |
| 20260510111203 | 10 | 192 | 4.8 | 8.0 | 0.00 | 0.03 | 0.03 | 99 | 1012.0 |
| 20260510110702 | 10 | 117 | 1.6 | 1.6 | 0.00 | 0.03 | 0.03 | 99 | 1012.3 |
| 20260510110200 | 10 | 346 | 1.6 | 1.6 | 0.00 | 0.03 | 0.03 | 99 | 1011.8 |
| 20260510105655 | 10 | 41 | 0.0 | 0.0 | 0.00 | 0.03 | 0.03 | 99 | 1011.8 |
| 20260510105150 | 10 | 38 | 0.0 | 0.0 | 0.00 | 0.03 | 0.03 | 99 | 1011.8 |
| 20260510104647 | 10 | 17 | 0.0 | 0.0 | 0.00 | 0.03 | 0.03 | 99 | 1011.7 |
| 20260510104144 | 10 | 53 | 0.0 | 0.0 | 0.00 | 0.03 | 0.03 | 99 | 1011.7 |
| 20260510103640 | 10 | 37 | 0.0 | 0.0 | 0.00 | 0.03 | 0.03 | 99 | 1011.6 |
| 20260510103137 | 9 | 60 | 0.0 | 0.0 | 0.00 | 0.03 | 0.03 | 99 | 1011.4 |
| 20260510102632 | 9 | 44 | 0.0 | 0.0 | 0.00 | 0.03 | 0.03 | 99 | 1011.2 |
| 20260510102128 | 8 | 91 | 1.6 | 1.6 | 0.00 | 0.03 | 0.03 | 99 | 1011.3 |
| 20260510101626 | 8 | 92 | 0.0 | 0.0 | 0.00 | 0.03 | 0.03 | 99 | 1011.0 |
| 20260510101124 | 9 | 77 | 0.0 | 0.0 | 0.00 | 0.03 | 0.03 | 99 | 1011.1 |
| 20260510100620 | 9 | 45 | 0.0 | 0.0 | 0.00 | 0.03 | 0.03 | 99 | 1011.5 |
| 20260510100117 | 9 | 31 | 0.0 | 0.0 | 0.00 | 0.03 | 0.03 | 99 | 1011.4 |
| 20260510095613 | 10 | 29 | 0.0 | 0.0 | 0.00 | 0.03 | 0.03 | 99 | 1011.2 |
| 20260510095113 | 9 | 31 | 0.0 | 0.0 | 0.00 | 0.03 | 0.03 | 99 | 1011.2 |
| 20260510094612 | 9 | 334 | 1.6 | 1.6 | 0.00 | 0.03 | 0.03 | 99 | 1011.2 |
| 20260510094107 | 9 | 23 | 0.0 | 0.0 | 0.00 | 0.03 | 0.03 | 99 | 1010.7 |
| 20260510093604 | 9 | 16 | 0.0 | 0.0 | 0.00 | 0.03 | 0.03 | 99 | 1010.6 |
| 20260510093101 | 9 | 82 | 0.0 | 1.6 | 0.00 | 0.03 | 0.03 | 99 | 1010.4 |
| 20260510092558 | 9 | 100 | 1.6 | 1.6 | 0.00 | 0.03 | 0.03 | 99 | 1010.5 |
| 20260510092057 | 10 | 335 | 1.6 | 1.6 | 0.00 | 0.03 | 0.03 | 99 | 1010.6 |
| 20260510091554 | 10 | 284 | 4.8 | 4.8 | 0.00 | 0.03 | 0.03 | 99 | 1010.6 |
| 20260510091050 | 10 | 252 | 3.2 | 3.2 | 0.00 | 0.03 | 0.03 | 99 | 1010.6 |
| 20260510090547 | 10 | 231 | 4.8 | 4.8 | 0.00 | 0.03 | 0.03 | 99 | 1010.6 |
| 20260510090043 | 10 | 296 | 1.6 | 3.2 | 0.00 | 0.03 | 0.03 | 99 | 1010.5 |
| 20260510085538 | 10 | 251 | 3.2 | 3.2 | 0.00 | 0.03 | 0.03 | 99 | 1010.3 |
| 20260510085034 | 10 | 210 | 3.2 | 3.2 | 0.00 | 0.03 | 0.03 | 99 | 1010.4 |
| 20260510084531 | 10 | 230 | 1.6 | 3.2 | 0.00 | 0.03 | 0.03 | 99 | 1010.3 |
| 20260510084028 | 10 | 155 | 1.6 | 3.2 | 0.00 | 0.03 | 0.03 | 99 | 1010.1 |
| 20260510083524 | 10 | 214 | 3.2 | 3.2 | 0.00 | 0.03 | 0.03 | 99 | 1010.4 |
| 20260510083021 | 10 | 1 | 0.0 | 0.0 | 0.00 | 0.03 | 0.03 | 99 | 1010.6 |
| 20260510082519 | 10 | 289 | 1.6 | 1.6 | 0.00 | 0.03 | 0.03 | 99 | 1010.5 |
| 20260510082018 | 10 | 312 | 4.8 | 4.8 | 0.00 | 0.03 | 0.03 | 99 | 1010.6 |
| 20260510081514 | 10 | 358 | 0.0 | 0.0 | 0.00 | 0.03 | 0.03 | 99 | 1010.5 |
| 20260510081010 | 10 | 280 | 4.8 | 4.8 | 0.00 | 0.03 | 0.03 | 99 | 1010.5 |
| 20260510080508 | 10 | 308 | 3.2 | 3.2 | 0.00 | 0.03 | 0.03 | 99 | 1010.3 |
| 20260510080006 | 10 | 242 | 3.2 | 3.2 | 0.00 | 0.03 | 0.03 | 99 | 1010.2 |
| 20260510075503 | 10 | 272 | 3.2 | 3.2 | 0.00 | 0.03 | 0.03 | 99 | 1009.9 |
| 20260510074959 | 10 | 186 | 4.8 | 4.8 | 0.00 | 0.03 | 0.03 | 99 | 1009.9 |
| 20260510074458 | 10 | 92 | 1.6 | 1.6 | 0.00 | 0.03 | 0.03 | 99 | 1009.6 |
| 20260510073953 | 10 | 116 | 3.2 | 3.2 | 0.00 | 0.03 | 0.03 | 99 | 1010.2 |
| 20260510073448 | 10 | 138 | 4.8 | 4.8 | 0.00 | 0.03 | 0.03 | 99 | 1010.4 |
| 20260510072945 | 10 | 118 | 1.6 | 1.6 | 0.00 | 0.03 | 0.03 | 99 | 1010.4 |
| 20260510072442 | 10 | 166 | 3.2 | 3.2 | 0.00 | 0.03 | 0.03 | 99 | 1010.7 |
| 20260510071938 | 10 | 205 | 1.6 | 3.2 | 0.00 | 0.03 | 0.03 | 99 | 1011.0 |
| 20260510071434 | 10 | 249 | 1.6 | 3.2 | 0.00 | 0.03 | 0.03 | 99 | 1010.9 |
| 20260510070933 | 11 | 173 | 3.2 | 3.2 | 0.00 | 0.03 | 0.03 | 99 | 1011.1 |
| 20260510070430 | 11 | 50 | 1.6 | 3.2 | 0.00 | 0.03 | 0.03 | 99 | 1011.1 |
| 20260510065925 | 11 | 221 | 1.6 | 1.6 | 0.00 | 0.03 | 0.03 | 99 | 1011.1 |
| 20260510065422 | 11 | 223 | 4.8 | 4.8 | 0.00 | 0.03 | 0.03 | 99 | 1011.1 |
| 20260510064918 | 11 | 192 | 9.7 | 11.3 | 0.00 | 0.03 | 0.03 | 99 | 1011.2 |
| 20260510064416 | 11 | 286 | 4.8 | 8.0 | 0.18 | 0.03 | 0.03 | 99 | 1011.2 |
| 20260510063912 | 11 | 268 | 4.8 | 4.8 | 0.18 | 0.03 | 0.03 | 99 | 1011.3 |
| 20260510063408 | 10 | 331 | 1.6 | 3.2 | 0.00 | 0.00 | 0.00 | 99 | 1011.5 |
| 20260510062907 | 10 | 324 | 1.6 | 1.6 | 0.00 | 0.00 | 0.00 | 99 | 1011.2 |
| 20260510062401 | 10 | 293 | 1.6 | 1.6 | 0.00 | 0.00 | 0.00 | 99 | 1010.9 |
| 20260510061857 | 10 | 165 | 1.6 | 3.2 | 0.00 | 0.00 | 0.00 | 99 | 1010.6 |
| 20260510061354 | 10 | 42 | 0.0 | 0.0 | 0.00 | 0.00 | 0.00 | 99 | 1010.8 |
| 20260510060849 | 10 | 20 | 0.0 | 0.0 | 0.00 | 0.00 | 0.00 | 99 | 1011.1 |
| 20260510060348 | 10 | 129 | 1.6 | 3.2 | 0.00 | 0.00 | 0.00 | 99 | 1011.1 |
| 20260510055844 | 10 | 313 | 3.2 | 3.2 | 0.00 | 0.00 | 0.00 | 99 | 1011.0 |
| 20260510055343 | 10 | 260 | 0.0 | 1.6 | 0.00 | 0.00 | 0.00 | 99 | 1010.7 |
| 20260510054842 | 10 | 295 | 3.2 | 3.2 | 0.00 | 0.00 | 0.00 | 99 | 1010.9 |
| 20260510054338 | 10 | 12 | 0.0 | 0.0 | 0.00 | 0.00 | 0.00 | 99 | 1010.7 |
| 20260510053833 | 10 | 2 | 0.0 | 0.0 | 0.00 | 0.00 | 0.00 | 99 | 1010.6 |
| 20260510053328 | 10 | 1 | 0.0 | 0.0 | 0.00 | 0.00 | 0.00 | 99 | 1010.5 |
| 20260510052825 | 10 | 343 | 0.0 | 0.0 | 0.00 | 0.00 | 0.00 | 99 | 1010.7 |
| 20260510052321 | 10 | 320 | 1.6 | 1.6 | 0.00 | 0.00 | 0.00 | 99 | 1010.5 |
| 20260510051818 | 10 | 315 | 1.6 | 1.6 | 0.00 | 0.00 | 0.00 | 99 | 1010.7 |
| 20260510051314 | 10 | 346 | 1.6 | 1.6 | 0.00 | 0.00 | 0.00 | 99 | 1010.5 |
| 20260510050811 | 10 | 52 | 0.0 | 1.6 | 0.00 | 0.00 | 0.00 | 99 | 1010.2 |
| 20260510050308 | 10 | 36 | 0.0 | 0.0 | 0.00 | 0.00 | 0.00 | 99 | 1010.4 |
| 20260510045805 | 9 | 19 | 0.0 | 0.0 | 0.00 | 0.00 | 0.00 | 99 | 1010.8 |
| 20260510045305 | 10 | 31 | 0.0 | 0.0 | 0.00 | 0.00 | 0.00 | 99 | 1010.8 |
| 20260510044800 | 10 | 343 | 0.0 | 0.0 | 0.00 | 0.00 | 0.00 | 99 | 1010.8 |
| 20260510044256 | 10 | 32 | 0.0 | 0.0 | 0.00 | 0.00 | 0.00 | 99 | 1010.5 |
| 20260510043752 | 9 | 41 | 0.0 | 1.6 | 0.00 | 0.00 | 0.00 | 99 | 1010.7 |
| 20260510043248 | 9 | 353 | 0.0 | 0.0 | 0.00 | 0.00 | 0.00 | 99 | 1010.8 |
| 20260510042746 | 9 | 315 | 1.6 | 1.6 | 0.00 | 0.00 | 0.00 | 99 | 1010.7 |
| 20260510042241 | 10 | 286 | 3.2 | 3.2 | 0.00 | 0.00 | 0.00 | 99 | 1010.6 |
| 20260510041738 | 10 | 307 | 1.6 | 1.6 | 0.00 | 0.00 | 0.00 | 99 | 1010.5 |
| 20260510041235 | 9 | 14 | 0.0 | 0.0 | 0.00 | 0.00 | 0.00 | 99 | 1010.2 |
| 20260510040733 | 9 | 41 | 0.0 | 0.0 | 0.00 | 0.00 | 0.00 | 99 | 1010.4 |
| 20260510040230 | 9 | 37 | 0.0 | 0.0 | 0.00 | 0.00 | 0.00 | 99 | 1010.5 |
| 20260510035725 | 10 | 350 | 0.0 | 0.0 | 0.00 | 0.38 | 0.38 | 99 | 1010.7 |
| 20260510035221 | 10 | 322 | 0.0 | 0.0 | 0.00 | 0.38 | 0.38 | 99 | 1010.7 |
| 20260510034716 | 10 | 351 | 0.0 | 0.0 | 0.00 | 0.38 | 0.38 | 99 | 1010.9 |
| 20260510034215 | 10 | 17 | 0.0 | 0.0 | 0.00 | 0.38 | 0.38 | 99 | 1010.5 |
| 20260510033710 | 10 | 355 | 1.6 | 1.6 | 0.00 | 0.38 | 0.38 | 99 | 1010.6 |
| 20260510033209 | 9 | 13 | 0.0 | 0.0 | 0.00 | 0.38 | 0.38 | 99 | 1010.5 |
| 20260510032705 | 9 | 14 | 0.0 | 0.0 | 0.00 | 0.38 | 0.38 | 99 | 1010.5 |
| 20260510032200 | 9 | 353 | 0.0 | 0.0 | 0.00 | 0.38 | 0.38 | 99 | 1010.5 |
| 20260510031655 | 9 | 342 | 0.0 | 1.6 | 0.00 | 0.38 | 0.38 | 99 | 1010.8 |
| 20260510031153 | 10 | 325 | 1.6 | 1.6 | 0.00 | 0.38 | 0.38 | 99 | 1010.7 |
| 20260510030652 | 10 | 305 | 1.6 | 3.2 | 0.00 | 0.38 | 0.38 | 99 | 1010.9 |
| 20260510030150 | 10 | 2 | 0.0 | 1.6 | 0.00 | 0.38 | 0.38 | 99 | 1011.0 |
| 20260510025647 | 9 | 318 | 1.6 | 1.6 | 0.00 | 0.38 | 0.38 | 99 | 1011.0 |
| 20260510025144 | 9 | 354 | 0.0 | 0.0 | 0.00 | 0.38 | 0.38 | 99 | 1010.6 |
| 20260510024641 | 10 | 353 | 0.0 | 0.0 | 0.00 | 0.38 | 0.38 | 99 | 1010.7 |
| 20260510024137 | 10 | 343 | 0.0 | 1.6 | 0.00 | 0.38 | 0.38 | 99 | 1010.8 |
| 20260510023633 | 10 | 341 | 0.0 | 1.6 | 0.00 | 0.38 | 0.38 | 99 | 1010.9 |
| 20260510023131 | 10 | 342 | 1.6 | 1.6 | 0.00 | 0.38 | 0.38 | 99 | 1010.9 |
| 20260510022631 | 10 | 3 | 0.0 | 0.0 | 0.00 | 0.38 | 0.38 | 99 | 1010.7 |
| 20260510022126 | 10 | 1 | 0.0 | 0.0 | 0.00 | 0.38 | 0.38 | 99 | 1010.8 |
| 20260510021622 | 9 | 2 | 0.0 | 0.0 | 0.00 | 0.38 | 0.38 | 99 | 1010.7 |
| 20260510021120 | 9 | 1 | 0.0 | 0.0 | 0.00 | 0.38 | 0.38 | 99 | 1010.5 |
| 20260510020613 | 10 | 327 | 1.6 | 1.6 | 0.00 | 0.38 | 0.38 | 99 | 1011.1 |
| 20260510020109 | 10 | 304 | 1.6 | 1.6 | 0.00 | 0.38 | 0.38 | 99 | 1010.9 |
| 20260510015605 | 10 | 328 | 1.6 | 1.6 | 0.00 | 0.38 | 0.38 | 99 | 1010.8 |
| 20260510015102 | 10 | 261 | 1.6 | 1.6 | 0.00 | 0.38 | 0.38 | 99 | 1010.8 |
| 20260510014558 | 10 | 13 | 0.0 | 0.0 | 0.00 | 0.38 | 0.38 | 99 | 1010.7 |
| 20260510014055 | 10 | 12 | 0.0 | 0.0 | 0.00 | 0.38 | 0.38 | 99 | 1010.7 |
| 20260510013549 | 10 | 26 | 0.0 | 0.0 | 0.00 | 0.38 | 0.38 | 99 | 1010.9 |
| 20260510013045 | 10 | 308 | 1.6 | 1.6 | 0.00 | 0.38 | 0.38 | 99 | 1010.9 |
| 20260510012539 | 10 | 272 | 1.6 | 1.6 | 0.00 | 0.38 | 0.38 | 99 | 1010.8 |
| 20260510012036 | 10 | 135 | 3.2 | 3.2 | 0.00 | 0.38 | 0.38 | 99 | 1010.7 |
| 20260510011536 | 10 | 26 | 0.0 | 0.0 | 0.00 | 0.38 | 0.38 | 99 | 1010.8 |
| 20260510011032 | 10 | 27 | 0.0 | 0.0 | 0.00 | 0.38 | 0.38 | 99 | 1010.7 |
| 20260510010528 | 10 | 13 | 0.0 | 0.0 | 0.00 | 0.38 | 0.38 | 99 | 1011.0 |
| 20260510010026 | 10 | 351 | 0.0 | 0.0 | 0.00 | 0.38 | 0.38 | 99 | 1010.9 |
| 20260510005521 | 10 | 351 | 0.0 | 0.0 | 0.00 | 0.38 | 0.38 | 99 | 1010.9 |
| 20260510005019 | 10 | 344 | 0.0 | 1.6 | 0.00 | 0.38 | 0.38 | 99 | 1011.0 |
| 20260510004516 | 10 | 336 | 1.6 | 1.6 | 0.00 | 0.38 | 0.38 | 99 | 1011.0 |
| 20260510004014 | 10 | 334 | 1.6 | 1.6 | 0.00 | 0.38 | 0.38 | 99 | 1011.0 |
| 20260510003510 | 10 | 353 | 0.0 | 1.6 | 0.00 | 0.38 | 0.38 | 99 | 1010.9 |
| 20260510003006 | 10 | 349 | 1.6 | 1.6 | 0.00 | 0.38 | 0.38 | 99 | 1010.6 |
| 20260510002502 | 10 | 4 | 0.0 | 0.0 | 0.00 | 0.38 | 0.38 | 99 | 1010.7 |
| 20260510001959 | 10 | 344 | 1.6 | 1.6 | 0.00 | 0.38 | 0.38 | 99 | 1010.4 |
| 20260510001456 | 10 | 345 | 1.6 | 1.6 | 0.00 | 0.38 | 0.38 | 99 | 1010.5 |
| 20260510000954 | 10 | 358 | 1.6 | 1.6 | 0.00 | 0.38 | 0.38 | 99 | 1010.4 |
| 20260510000449 | 10 | 17 | 0.0 | 0.0 | 0.00 | 0.38 | 0.38 | 99 | 1010.4 |
| 20260509235946 | 10 | 21 | 0.0 | 0.0 | 0.00 | 0.38 | 0.38 | 99 | 1010.5 |
| 20260509235443 | 10 | 19 | 1.6 | 1.6 | 0.00 | 0.38 | 0.38 | 99 | 1010.6 |
| 20260509234940 | 10 | 25 | 0.0 | 0.0 | 0.00 | 0.38 | 0.38 | 99 | 1010.5 |
| 20260509234436 | 10 | 13 | 0.0 | 0.0 | 0.00 | 0.38 | 0.38 | 99 | 1010.4 |
| 20260509233934 | 11 | 7 | 0.0 | 0.0 | 0.00 | 0.38 | 0.38 | 99 | 1010.2 |
| 20260509233432 | 11 | 350 | 0.0 | 1.6 | 0.00 | 0.38 | 0.38 | 99 | 1010.2 |
| 20260509232927 | 11 | 318 | 1.6 | 1.6 | 0.00 | 0.38 | 0.38 | 99 | 1010.1 |
| 20260509232425 | 11 | 345 | 0.0 | 1.6 | 0.00 | 0.38 | 0.38 | 99 | 1009.9 |
| 20260509231921 | 11 | 36 | 0.0 | 1.6 | 0.00 | 0.38 | 0.38 | 99 | 1009.8 |
| 20260509231418 | 11 | 32 | 0.0 | 0.0 | 0.00 | 0.38 | 0.38 | 99 | 1009.9 |
| 20260509230916 | 11 | 353 | 0.0 | 1.6 | 0.00 | 0.38 | 0.38 | 99 | 1010.1 |
| 20260509230412 | 11 | 14 | 0.0 | 0.0 | 0.00 | 0.38 | 0.38 | 99 | 1010.2 |
| 20260509225908 | 11 | 16 | 0.0 | 1.6 | 0.00 | 0.38 | 0.38 | 99 | 1010.1 |
| 20260509225405 | 11 | 339 | 1.6 | 1.6 | 0.00 | 0.38 | 0.38 | 99 | 1010.0 |
| 20260509224901 | 11 | 12 | 0.0 | 0.0 | 0.00 | 0.38 | 0.38 | 99 | 1010.2 |
| 20260509224357 | 11 | 27 | 0.0 | 0.0 | 0.00 | 0.38 | 0.38 | 99 | 1010.1 |
| 20260509223855 | 11 | 27 | 0.0 | 0.0 | 0.00 | 0.38 | 0.38 | 99 | 1010.1 |
| 20260509223351 | 11 | 31 | 0.0 | 1.6 | 0.00 | 0.38 | 0.38 | 99 | 1009.9 |
| 20260509222849 | 10 | 23 | 1.6 | 1.6 | 0.00 | 0.38 | 0.38 | 99 | 1010.0 |
| 20260509222348 | 10 | 38 | 0.0 | 0.0 | 0.00 | 0.38 | 0.38 | 99 | 1010.1 |
| 20260509221844 | 10 | 40 | 0.0 | 0.0 | 0.00 | 0.38 | 0.38 | 99 | 1010.0 |
| 20260509221342 | 11 | 9 | 3.2 | 3.2 | 0.00 | 0.38 | 0.38 | 99 | 1010.1 |
| 20260509220843 | 10 | 11 | 0.0 | 0.0 | 0.00 | 0.38 | 0.38 | 99 | 1010.2 |
| 20260509220339 | 10 | 33 | 0.0 | 0.0 | 0.00 | 0.38 | 0.38 | 99 | 1010.2 |
| 20260509215834 | 11 | 39 | 1.6 | 3.2 | 0.00 | 0.38 | 0.38 | 99 | 1010.2 |
| 20260509215331 | 11 | 44 | 1.6 | 1.6 | 0.00 | 0.38 | 0.38 | 99 | 1010.4 |
| 20260509214828 | 10 | 22 | 0.0 | 0.0 | 0.00 | 0.38 | 0.38 | 99 | 1010.4 |
| 20260509214325 | 10 | 46 | 0.0 | 1.6 | 0.00 | 0.38 | 0.38 | 99 | 1010.4 |
| 20260509213823 | 10 | 33 | 0.0 | 1.6 | 0.00 | 0.38 | 0.38 | 99 | 1010.7 |
| 20260509213318 | 10 | 29 | 0.0 | 0.0 | 0.00 | 0.38 | 0.38 | 99 | 1010.5 |
| 20260509212816 | 10 | 68 | 1.6 | 3.2 | 0.00 | 0.38 | 0.38 | 98 | 1010.7 |
| 20260509212313 | 10 | 14 | 1.6 | 1.6 | 0.00 | 0.38 | 0.38 | 98 | 1010.7 |
| 20260509211809 | 10 | 31 | 1.6 | 1.6 | 0.00 | 0.38 | 0.38 | 98 | 1010.8 |
| 20260509211305 | 10 | 17 | 0.0 | 1.6 | 0.00 | 0.38 | 0.38 | 98 | 1010.9 |
| 20260509210801 | 10 | 33 | 0.0 | 0.0 | 0.00 | 0.38 | 0.38 | 98 | 1011.0 |
| 20260509210259 | 10 | 29 | 0.0 | 0.0 | 0.00 | 0.38 | 0.38 | 98 | 1010.9 |
| 20260509205759 | 10 | 33 | 0.0 | 0.0 | 0.00 | 0.38 | 0.38 | 98 | 1010.9 |
| 20260509205254 | 10 | 68 | 1.6 | 1.6 | 0.00 | 0.38 | 0.38 | 98 | 1011.0 |
| 20260509204750 | 10 | 28 | 0.0 | 0.0 | 0.00 | 0.38 | 0.38 | 99 | 1011.0 |
| 20260509204246 | 10 | 34 | 0.0 | 0.0 | 0.00 | 0.38 | 0.38 | 99 | 1011.2 |
| 20260509203742 | 10 | 93 | 1.6 | 1.6 | 0.00 | 0.38 | 0.38 | 99 | 1011.0 |
| 20260509203241 | 10 | 330 | 0.0 | 1.6 | 0.00 | 0.38 | 0.38 | 99 | 1011.2 |
| 20260509202736 | 10 | 260 | 1.6 | 3.2 | 0.00 | 0.38 | 0.38 | 99 | 1011.4 |
| 20260509202232 | 10 | 237 | 3.2 | 3.2 | 0.00 | 0.38 | 0.38 | 99 | 1011.4 |
| 20260509201726 | 10 | 4 | 0.0 | 0.0 | 0.00 | 0.38 | 0.38 | 99 | 1011.5 |
| 20260509201224 | 10 | 359 | 0.0 | 1.6 | 0.00 | 0.38 | 0.38 | 99 | 1011.3 |
| 20260509200720 | 10 | 335 | 0.0 | 1.6 | 0.00 | 0.38 | 0.38 | 99 | 1011.4 |
| 20260509200215 | 10 | 317 | 1.6 | 1.6 | 0.00 | 0.38 | 0.38 | 99 | 1011.7 |
| 20260509195711 | 10 | 341 | 1.6 | 1.6 | 0.00 | 0.38 | 0.38 | 99 | 1011.4 |
| 20260509195207 | 10 | 33 | 0.0 | 0.0 | 0.00 | 0.38 | 0.38 | 99 | 1011.6 |
| 20260509194706 | 10 | 353 | 0.0 | 1.6 | 0.00 | 0.38 | 0.38 | 99 | 1011.7 |
| 20260509194203 | 10 | 42 | 0.0 | 0.0 | 0.00 | 0.38 | 0.38 | 99 | 1011.9 |
| 20260509193700 | 10 | 39 | 0.0 | 0.0 | 0.00 | 0.38 | 0.38 | 99 | 1011.6 |
| 20260509193155 | 10 | 318 | 1.6 | 1.6 | 0.00 | 0.38 | 0.38 | 98 | 1011.6 |
| 20260509192652 | 10 | 6 | 0.0 | 0.0 | 0.00 | 0.38 | 0.38 | 99 | 1011.7 |
| 20260509192147 | 10 | 334 | 1.6 | 1.6 | 0.00 | 0.38 | 0.38 | 99 | 1011.8 |
| 20260509191647 | 10 | 334 | 1.6 | 1.6 | 0.00 | 0.38 | 0.38 | 99 | 1011.9 |
| 20260509191144 | 10 | 14 | 0.0 | 0.0 | 0.00 | 0.38 | 0.38 | 99 | 1011.9 |
| 20260509190640 | 10 | 25 | 0.0 | 0.0 | 0.00 | 0.38 | 0.38 | 99 | 1012.1 |
| 20260509190138 | 10 | 27 | 0.0 | 0.0 | 0.00 | 0.38 | 0.38 | 99 | 1012.0 |
| 20260509185635 | 10 | 24 | 0.0 | 0.0 | 0.00 | 0.38 | 0.38 | 99 | 1011.9 |
| 20260509185131 | 10 | 33 | 0.0 | 0.0 | 0.00 | 0.38 | 0.38 | 99 | 1011.9 |
| 20260509184629 | 10 | 41 | 0.0 | 0.0 | 0.00 | 0.38 | 0.38 | 99 | 1012.0 |
| 20260509184126 | 10 | 41 | 0.0 | 0.0 | 0.00 | 0.38 | 0.38 | 99 | 1012.0 |
| 20260509183622 | 10 | 39 | 0.0 | 0.0 | 0.00 | 0.38 | 0.38 | 99 | 1011.9 |
| 20260509183117 | 9 | 213 | 1.6 | 1.6 | 0.00 | 0.38 | 0.38 | 99 | 1012.0 |
| 20260509182613 | 9 | 8 | 0.0 | 0.0 | 0.00 | 0.38 | 0.38 | 99 | 1012.2 |
| 20260509182110 | 9 | 270 | 1.6 | 1.6 | 0.00 | 0.38 | 0.38 | 98 | 1012.1 |
| 20260509181609 | 9 | 195 | 1.6 | 1.6 | 0.00 | 0.38 | 0.38 | 98 | 1012.2 |
| 20260509181106 | 9 | 353 | 0.0 | 1.6 | 0.00 | 0.38 | 0.38 | 98 | 1012.0 |
| 20260509180602 | 9 | 258 | 1.6 | 1.6 | 0.00 | 0.38 | 0.38 | 98 | 1012.2 |
| 20260509180059 | 9 | 12 | 0.0 | 0.0 | 0.00 | 0.38 | 0.38 | 99 | 1012.4 |
| 20260509175554 | 9 | 320 | 3.2 | 3.2 | 0.00 | 0.38 | 0.38 | 98 | 1012.2 |
| 20260509175052 | 9 | 277 | 3.2 | 4.8 | 0.00 | 0.38 | 0.38 | 98 | 1012.2 |
| 20260509174548 | 9 | 309 | 3.2 | 4.8 | 0.00 | 0.38 | 0.38 | 98 | 1012.4 |
| 20260509174044 | 9 | 289 | 1.6 | 3.2 | 0.00 | 0.38 | 0.38 | 98 | 1012.1 |
| 20260509173543 | 9 | 3 | 0.0 | 0.0 | 0.00 | 0.38 | 0.38 | 98 | 1012.3 |
| 20260509173040 | 9 | 26 | 0.0 | 0.0 | 0.00 | 0.38 | 0.38 | 99 | 1012.3 |
| 20260509172537 | 9 | 30 | 0.0 | 0.0 | 0.00 | 0.38 | 0.38 | 99 | 1012.7 |
| 20260509172033 | 10 | 23 | 1.6 | 1.6 | 0.00 | 0.38 | 0.38 | 98 | 1012.4 |
| 20260509171529 | 9 | 42 | 1.6 | 3.2 | 0.00 | 0.38 | 0.38 | 99 | 1012.3 |
| 20260509171026 | 8 | 68 | 0.0 | 1.6 | 0.00 | 0.38 | 0.38 | 99 | 1012.6 |
| 20260509170521 | 8 | 26 | 1.6 | 1.6 | 0.00 | 0.38 | 0.38 | 98 | 1012.7 |
| 20260509170017 | 8 | 11 | 1.6 | 1.6 | 0.00 | 0.38 | 0.38 | 98 | 1012.9 |
| 20260509165517 | 8 | 31 | 1.6 | 3.2 | 0.00 | 0.38 | 0.38 | 98 | 1013.0 |
| 20260509165012 | 8 | 12 | 1.6 | 1.6 | 0.00 | 0.38 | 0.38 | 98 | 1013.0 |
| 20260509164508 | 8 | 22 | 1.6 | 3.2 | 0.13 | 0.38 | 0.38 | 98 | 1013.0 |
| 20260509164004 | 7 | 14 | 0.0 | 0.0 | 0.13 | 0.38 | 0.38 | 98 | 1013.1 |
| 20260509163502 | 8 | 36 | 1.6 | 1.6 | 0.00 | 0.36 | 0.36 | 97 | 1013.2 |
| 20260509163001 | 8 | 9 | 1.6 | 1.6 | 0.00 | 0.36 | 0.36 | 97 | 1013.1 |
| 20260509162500 | 8 | 213 | 0.0 | 0.0 | 0.00 | 0.36 | 0.36 | 97 | 1013.5 |
| 20260509161955 | 7 | 14 | 0.0 | 0.0 | 0.00 | 0.36 | 0.36 | 97 | 1013.4 |
| 20260509161452 | 8 | 59 | 0.0 | 0.0 | 0.18 | 0.36 | 0.36 | 97 | 1013.5 |
| 20260509160947 | 8 | 46 | 0.0 | 0.0 | 0.18 | 0.36 | 0.36 | 97 | 1013.5 |
| 20260509160443 | 8 | 70 | 1.6 | 1.6 | 0.00 | 0.33 | 0.33 | 97 | 1013.6 |
| 20260509155938 | 7 | 61 | 0.0 | 1.6 | 0.13 | 0.33 | 0.33 | 97 | 1013.6 |
| 20260509155435 | 7 | 30 | 0.0 | 0.0 | 0.18 | 0.30 | 0.30 | 96 | 1013.8 |
| 20260509154932 | 7 | 44 | 0.0 | 0.0 | 0.30 | 0.30 | 0.30 | 96 | 1013.6 |
| 20260509154428 | 8 | 37 | 0.0 | 0.0 | 0.13 | 0.28 | 0.28 | 96 | 1013.7 |
| 20260509153925 | 8 | 40 | 0.0 | 0.0 | 0.30 | 0.28 | 0.28 | 95 | 1014.0 |
| 20260509153422 | 8 | 43 | 0.0 | 0.0 | 0.48 | 0.25 | 0.25 | 95 | 1013.8 |
| 20260509152919 | 8 | 47 | 0.0 | 0.0 | 0.43 | 0.23 | 0.23 | 94 | 1014.0 |
| 20260509152415 | 8 | 66 | 1.6 | 1.6 | 0.30 | 0.20 | 0.20 | 94 | 1014.3 |
| 20260509151912 | 8 | 39 | 0.0 | 0.0 | 0.30 | 0.18 | 0.18 | 93 | 1014.0 |
| 20260509151408 | 8 | 40 | 0.0 | 0.0 | 0.36 | 0.15 | 0.15 | 92 | 1014.1 |
| 20260509150906 | 8 | 39 | 0.0 | 0.0 | 0.18 | 0.13 | 0.13 | 92 | 1014.0 |
| 20260509150404 | 8 | 38 | 0.0 | 0.0 | 0.18 | 0.13 | 0.13 | 92 | 1014.0 |
| 20260509145902 | 8 | 38 | 0.0 | 0.0 | 0.13 | 0.10 | 0.10 | 92 | 1014.2 |
| 20260509145401 | 8 | 33 | 0.0 | 0.0 | 0.13 | 0.10 | 0.10 | 92 | 1014.2 |
| 20260509144857 | 7 | 38 | 0.0 | 0.0 | 0.00 | 0.08 | 0.08 | 92 | 1014.3 |
| 20260509144354 | 8 | 37 | 0.0 | 0.0 | 0.00 | 0.08 | 0.08 | 92 | 1014.2 |
| 20260509143851 | 8 | 33 | 0.0 | 0.0 | 0.18 | 0.08 | 0.08 | 92 | 1014.0 |
| 20260509143349 | 8 | 63 | 1.6 | 1.6 | 0.18 | 0.08 | 0.08 | 91 | 1014.0 |
| 20260509142845 | 7 | 25 | 0.0 | 0.0 | 0.00 | 0.05 | 0.05 | 91 | 1014.3 |
| 20260509142341 | 7 | 35 | 1.6 | 1.6 | 0.13 | 0.05 | 0.05 | 90 | 1014.2 |
| 20260509141837 | 7 | 39 | 0.0 | 0.0 | 0.13 | 0.05 | 0.05 | 91 | 1014.3 |
| 20260509141334 | 8 | 55 | 0.0 | 0.0 | 0.18 | 0.03 | 0.03 | 90 | 1014.0 |
| 20260509140830 | 7 | 111 | 1.6 | 1.6 | 0.18 | 0.03 | 0.03 | 90 | 1014.2 |
| 20260509140328 | 7 | 38 | 0.0 | 0.0 | 0.00 | 0.00 | 0.00 | 90 | 1014.3 |
| 20260509135826 | 7 | 118 | 1.6 | 3.2 | 0.00 | 0.00 | 0.00 | 90 | 1014.1 |
| 20260509135323 | 7 | 134 | 1.6 | 3.2 | 0.00 | 0.00 | 0.00 | 89 | 1014.2 |
| 20260509134820 | 7 | 136 | 3.2 | 3.2 | 0.00 | 0.00 | 0.00 | 87 | 1014.4 |
| 20260509134317 | 7 | 153 | 1.6 | 1.6 | 0.00 | 0.00 | 0.00 | 86 | 1014.3 |
| 20260509133814 | 7 | 88 | 1.6 | 1.6 | 0.00 | 0.00 | 0.00 | 86 | 1014.1 |
| 20260509133311 | 7 | 134 | 3.2 | 3.2 | 0.00 | 0.00 | 0.00 | 84 | 1014.1 |
| 20260509132809 | 7 | 130 | 3.2 | 3.2 | 0.00 | 0.00 | 0.00 | 84 | 1014.1 |
| 20260509132308 | 7 | 38 | 0.0 | 0.0 | 0.00 | 0.00 | 0.00 | 82 | 1014.1 |
| 20260509131804 | 7 | 43 | 0.0 | 0.0 | 0.00 | 0.00 | 0.00 | 81 | 1014.0 |
| 20260509131301 | 8 | 45 | 0.0 | 0.0 | 0.00 | 0.00 | 0.00 | 81 | 1014.3 |
| 20260509130757 | 7 | 63 | 1.6 | 1.6 | 0.00 | 0.00 | 0.00 | 81 | 1014.1 |
| 20260509130253 | 7 | 71 | 1.6 | 1.6 | 0.00 | 0.00 | 0.00 | 82 | 1014.0 |
| 20260509125749 | 7 | 65 | 1.6 | 1.6 | 0.00 | 0.00 | 0.00 | 84 | 1014.1 |
| 20260509125247 | 7 | 45 | 0.0 | 0.0 | 0.00 | 0.00 | 0.00 | 86 | 1014.1 |
| 20260509124743 | 6 | 48 | 0.0 | 1.6 | 0.00 | 0.00 | 0.00 | 87 | 1014.1 |
| 20260509124239 | 6 | 38 | 0.0 | 0.0 | 0.00 | 0.00 | 0.00 | 88 | 1014.1 |
| 20260509123738 | 6 | 52 | 0.0 | 1.6 | 0.00 | 0.00 | 0.00 | 91 | 1014.3 |